Gelantipy, Australia
Current Conditions -  °F | °C
As of 5:00 PM on Wednesday 26 Nov 2014 (Local Time) from YCOM Reporting Station
Broken Clouds Broken Clouds  
Wind Chill: 70°   Ceiling: 8400
Heat Index: 70°   Visibility: 6mi
Dew Point: 39°   Wind: 17mph
Humidity: 33%   Direction: 180°S
Pressure: 30.03"   Gusts: NA
Location:  37.22°S, 148.26°E
Report Text: YCOM 260600Z AUTO 18015KT 170V240 9999 // BKN084 21/04 Q1017
Loading
Personal Weather Stations






























Interactive Weather Map New forecast layout! Learn more

10-Day Weather Forecast

Advertisements
Track Severe Weather on mobile